Time;durP1;ratioP1;P1;durP2;ratioP2;P2;SDS_P1;SDS_P2;PMS_P1;PMS_P2;Temp;Humidity;BMP_temperature;BMP_pressure;BME280_temperature;BME280_humidity;BME280_pressure;Samples;Min_cycle;Max_cycle;Signal;HPM_P1;HPM_P2
2021/04/08 00:02:00;;;;;;;13.65;8.00;;;;;;;2.59;59.53;98723.87;257868;1118;114428;-71
2021/04/08 00:07:03;;;;;;;11.48;7.33;;;;;;;2.58;59.78;98723.02;257843;1118;114984;-71
2021/04/08 00:12:07;;;;;;;13.80;7.50;;;;;;;2.56;59.59;98713.47;257462;1118;114702;-72
2021/04/08 00:17:11;;;;;;;13.85;7.53;;;;;;;2.51;59.40;98712.75;257736;1118;114595;-72
2021/04/08 00:22:14;;;;;;;14.23;7.43;;;;;;;2.46;59.65;98707.67;257496;1118;114494;-79
2021/04/08 00:27:17;;;;;;;15.70;7.53;;;;;;;2.40;59.82;98710.50;256603;1118;115033;-80
2021/04/08 00:32:19;;;;;;;12.55;7.25;;;;;;;2.43;59.92;98727.93;257411;1118;114770;-71
2021/04/08 00:37:22;;;;;;;15.08;8.48;;;;;;;2.44;59.58;98719.98;257604;1118;114468;-71
2021/04/08 00:42:25;;;;;;;14.13;7.55;;;;;;;2.50;59.29;98709.27;258280;1117;114551;-71
2021/04/08 00:47:28;;;;;;;17.35;8.18;;;;;;;2.48;59.17;98711.12;257796;1118;114382;-70
2021/04/08 00:52:32;;;;;;;16.58;8.18;;;;;;;2.44;59.32;98716.50;258173;1118;114509;-71
2021/04/08 00:57:35;;;;;;;17.03;8.98;;;;;;;2.43;58.97;98713.02;257509;1118;115145;-71
2021/04/08 01:02:38;;;;;;;17.53;8.38;;;;;;;2.44;59.20;98714.73;257847;1118;114449;-71
2021/04/08 01:07:41;;;;;;;20.25;8.65;;;;;;;2.44;59.14;98719.13;257759;1119;114706;-70
2021/04/08 01:12:44;;;;;;;16.13;8.20;;;;;;;2.43;58.88;98728.78;257345;1117;114366;-71
2021/04/08 01:18:08;;;;;;;15.58;8.60;;;;;;;2.41;58.84;98727.11;258040;1118;114840;-71
2021/04/08 01:23:40;;;;;;;13.20;8.08;;;;;;;2.43;58.79;98727.93;257040;1118;114695;-71
2021/04/08 01:28:48;;;;;;;13.65;8.13;;;;;;;2.40;58.57;98726.26;257876;1118;114703;-70
2021/04/08 01:33:56;;;;;;;20.28;7.98;;;;;;;2.38;58.32;98730.72;256746;1118;114593;-72
2021/04/08 01:39:03;;;;;;;13.78;7.73;;;;;;;2.28;58.07;98730.17;257052;1117;114637;-70
2021/04/08 01:44:08;;;;;;;14.13;7.88;;;;;;;2.21;58.14;98733.02;257845;1118;114786;-70
2021/04/08 01:49:13;;;;;;;15.88;8.73;;;;;;;2.18;58.39;98727.91;257874;1117;114710;-70
2021/04/08 01:54:16;;;;;;;15.40;8.30;;;;;;;2.14;58.26;98721.91;257729;1119;114722;-70
2021/04/08 01:59:19;;;;;;;13.13;7.63;;;;;;;2.11;58.36;98729.88;257518;1118;114641;-71
2021/04/08 02:04:24;;;;;;;15.40;8.03;;;;;;;2.10;58.15;98721.12;257524;1118;114475;-71
2021/04/08 02:09:27;;;;;;;14.38;8.08;;;;;;;2.06;58.46;98730.00;257757;1117;114629;-70
2021/04/08 02:14:31;;;;;;;15.68;7.75;;;;;;;2.05;58.13;98728.30;257683;1119;115319;-72
2021/04/08 02:19:35;;;;;;;15.35;8.08;;;;;;;2.02;58.50;98717.90;257742;1118;114790;-72
2021/04/08 02:24:39;;;;;;;17.15;8.15;;;;;;;2.03;58.19;98726.63;257770;1118;115033;-71
2021/04/08 02:29:42;;;;;;;13.83;7.60;;;;;;;2.03;58.16;98730.10;257725;1118;114613;-71
2021/04/08 02:34:45;;;;;;;11.08;7.63;;;;;;;2.03;58.36;98727.48;257547;1118;114408;-71
2021/04/08 02:39:48;;;;;;;15.63;8.10;;;;;;;2.04;58.12;98731.84;257942;1117;114907;-71
2021/04/08 02:44:51;;;;;;;14.10;7.53;;;;;;;2.06;58.21;98730.00;257844;1118;114637;-71
2021/04/08 02:49:54;;;;;;;14.03;7.68;;;;;;;2.07;58.32;98742.24;258024;1117;114500;-70
2021/04/08 02:55:13;;;;;;;11.75;7.15;;;;;;;2.06;58.21;98737.88;257625;1118;114991;-70
2021/04/08 03:00:17;;;;;;;14.13;7.63;;;;;;;2.07;58.02;98741.36;257693;1118;114863;-71
2021/04/08 03:05:21;;;;;;;12.00;6.40;;;;;;;2.08;58.21;98753.59;257708;1118;114736;-71
2021/04/08 03:10:26;;;;;;;13.63;6.78;;;;;;;2.11;57.83;98748.25;257582;1118;115372;-70
2021/04/08 03:15:34;;;;;;;10.90;6.70;;;;;;;2.15;57.89;98744.61;257707;1118;114509;-70
2021/04/08 03:20:39;;;;;;;13.58;6.90;;;;;;;2.23;58.31;98739.09;257580;1118;114811;-70
2021/04/08 03:25:42;;;;;;;11.93;6.55;;;;;;;2.21;58.08;98740.91;256852;1118;115063;-71
2021/04/08 03:30:46;;;;;;;11.38;7.15;;;;;;;2.16;57.66;98741.06;257695;1118;115007;-71
2021/04/08 03:35:50;;;;;;;11.05;6.58;;;;;;;2.11;57.56;98756.98;257560;1118;115025;-71
2021/04/08 03:40:57;;;;;;;9.65;6.45;;;;;;;2.08;57.90;98748.34;257626;1117;114550;-71
2021/04/08 03:46:02;;;;;;;10.95;6.18;;;;;;;2.12;57.76;98760.45;257557;1119;114588;-70
2021/04/08 03:51:06;;;;;;;12.23;6.33;;;;;;;2.20;58.26;98757.57;257688;1118;114783;-70
2021/04/08 03:56:09;;;;;;;10.35;6.80;;;;;;;2.22;58.12;98755.77;257686;1118;115099;-70
2021/04/08 04:01:15;;;;;;;12.98;6.75;;;;;;;2.21;57.99;98754.91;257561;1118;114774;-70
2021/04/08 04:06:20;;;;;;;11.00;7.23;;;;;;;2.26;57.79;98767.88;257596;1117;115077;-70
2021/04/08 04:11:23;;;;;;;15.03;9.15;;;;;;;2.29;58.06;98768.63;257599;1117;114650;-71
2021/04/08 04:16:29;;;;;;;13.30;8.13;;;;;;;2.36;57.76;98766.66;257807;1117;114759;-70
2021/04/08 04:21:33;;;;;;;16.45;8.08;;;;;;;2.42;57.71;98766.47;257648;1118;115017;-71
2021/04/08 04:26:35;;;;;;;13.03;8.30;;;;;;;2.44;57.59;98762.00;257650;1117;114531;-71
2021/04/08 04:31:40;;;;;;;12.20;7.55;;;;;;;2.46;57.68;98773.33;257890;1118;114625;-71
2021/04/08 04:36:43;;;;;;;12.00;6.28;;;;;;;2.52;57.75;98788.03;257663;1119;115931;-71
2021/04/08 04:41:46;;;;;;;8.93;5.75;;;;;;;2.61;57.71;98782.45;257564;1117;115109;-72
2021/04/08 04:46:49;;;;;;;12.28;5.75;;;;;;;2.68;58.00;98778.70;257869;1118;115244;-78
2021/04/08 04:51:52;;;;;;;10.40;6.08;;;;;;;2.74;57.77;98780.27;257957;1118;114717;-78
2021/04/08 04:56:55;;;;;;;8.88;6.30;;;;;;;2.76;58.03;98794.22;257694;1118;114761;-79
2021/04/08 05:01:58;;;;;;;10.53;6.73;;;;;;;2.76;58.03;98787.19;258253;1117;115652;-78
2021/04/08 05:07:01;;;;;;;8.93;6.03;;;;;;;2.69;58.81;98795.34;256934;1118;114661;-78
2021/04/08 05:12:04;;;;;;;10.78;7.18;;;;;;;2.58;59.25;98804.45;258366;1118;114465;-76
2021/04/08 05:17:07;;;;;;;12.30;8.23;;;;;;;2.52;59.54;98812.52;257761;1117;114629;-69
2021/04/08 05:22:10;;;;;;;14.43;8.98;;;;;;;2.48;60.63;98823.16;257821;1118;114578;-69
2021/04/08 05:27:13;;;;;;;13.68;8.98;;;;;;;2.41;60.73;98821.64;257447;1118;114598;-69
2021/04/08 05:32:16;;;;;;;11.90;8.65;;;;;;;2.39;60.99;98826.96;257875;1118;114810;-69
2021/04/08 05:37:19;;;;;;;12.63;8.37;;;;;;;2.35;61.31;98834.08;257546;1118;114575;-68
2021/04/08 05:42:22;;;;;;;10.25;7.68;;;;;;;2.33;61.55;98832.41;257732;1118;114711;-69
2021/04/08 05:47:25;;;;;;;15.70;10.28;;;;;;;2.31;62.17;98845.59;257583;1118;114597;-69
2021/04/08 05:52:30;;;;;;;12.73;8.88;;;;;;;2.34;62.03;98845.50;258150;1118;115034;-69
2021/04/08 05:57:34;;;;;;;14.78;9.28;;;;;;;2.39;62.47;98853.22;257983;1118;114763;-70
2021/04/08 06:02:36;;;;;;;13.25;8.98;;;;;;;2.42;62.92;98858.38;257336;1118;114997;-70
2021/04/08 06:07:39;;;;;;;11.60;7.80;;;;;;;2.47;62.95;98873.98;257650;1117;114605;-70
2021/04/08 06:12:43;;;;;;;11.53;8.18;;;;;;;2.48;62.60;98868.69;257745;1118;114910;-71
2021/04/08 06:17:47;;;;;;;13.80;9.03;;;;;;;2.51;63.23;98889.58;257202;1118;114655;-78
2021/04/08 06:22:52;;;;;;;11.53;7.78;;;;;;;2.59;63.20;98878.84;256562;1118;114770;-79
2021/04/08 06:28:01;;;;;;;11.40;7.58;;;;;;;2.63;63.25;98887.48;257017;1117;114709;-79
2021/04/08 06:33:06;;;;;;;11.30;7.93;;;;;;;2.63;63.53;98890.12;257789;1118;114883;-79
2021/04/08 06:38:08;;;;;;;10.25;7.38;;;;;;;2.72;63.67;98895.94;257255;1118;114979;-79
2021/04/08 06:43:12;;;;;;;12.60;8.20;;;;;;;2.76;63.87;98897.55;255503;1117;115054;-82
2021/04/08 06:48:17;;;;;;;11.18;8.20;;;;;;;2.82;64.08;98914.89;254923;1118;115154;-77
2021/04/08 06:53:20;;;;;;;13.60;8.47;;;;;;;2.86;63.87;98911.25;257984;1118;114504;-78
2021/04/08 06:58:24;;;;;;;16.35;9.40;;;;;;;2.93;64.13;98925.91;257258;1118;114983;-79
2021/04/08 07:03:40;;;;;;;12.47;9.47;;;;;;;2.99;64.01;98936.22;257681;1117;114908;-79
2021/04/08 07:08:45;;;;;;;15.85;10.70;;;;;;;3.08;64.13;98945.55;257753;1118;114456;-79
2021/04/08 07:13:48;;;;;;;21.93;11.23;;;;;;;3.19;64.24;98943.41;257751;1118;115168;-79
2021/04/08 07:18:53;;;;;;;16.95;10.55;;;;;;;3.28;63.78;98950.15;257779;1118;114547;-77
2021/04/08 07:24:09;;;;;;;15.30;9.68;;;;;;;3.39;64.09;98947.15;254269;1118;115203;-78
2021/04/08 07:29:12;;;;;;;13.68;9.08;;;;;;;3.50;64.09;98960.81;252523;1118;114699;-78
2021/04/08 07:34:45;;;;;;;16.45;10.68;;;;;;;3.49;63.94;98969.59;256713;1118;114571;-69
2021/04/08 07:39:48;;;;;;;18.83;11.68;;;;;;;3.51;64.57;98980.94;257820;1117;114721;-70
2021/04/08 07:44:52;;;;;;;17.37;12.50;;;;;;;3.56;63.90;98993.00;258182;1118;114779;-70
2021/04/08 07:50:16;;;;;;;17.58;11.43;;;;;;;3.63;64.25;99003.32;257716;1118;114683;-70
2021/04/08 07:55:30;;;;;;;17.05;11.63;;;;;;;3.69;63.96;99009.23;257518;1118;114784;-70
2021/04/08 08:00:41;;;;;;;20.83;12.05;;;;;;;3.73;63.74;99025.77;257767;1117;114783;-70
2021/04/08 08:05:46;;;;;;;18.45;10.83;;;;;;;3.86;63.61;99032.34;257938;1118;114807;-69
2021/04/08 08:11:02;;;;;;;19.00;10.75;;;;;;;3.99;64.22;99048.57;257879;1118;114846;-69
2021/04/08 08:16:07;;;;;;;21.58;11.90;;;;;;;4.08;63.82;99044.77;257903;1118;114604;-69
2021/04/08 08:21:36;;;;;;;18.03;10.93;;;;;;;4.06;63.65;99060.59;257694;1117;115130;-69
2021/04/08 08:26:42;;;;;;;17.60;10.43;;;;;;;4.13;63.28;99064.73;257612;1118;114860;-70
2021/04/08 08:31:50;;;;;;;16.30;8.30;;;;;;;4.11;63.19;99074.48;257579;1118;114853;-70
2021/04/08 08:36:56;;;;;;;14.80;7.55;;;;;;;4.00;62.77;99092.41;257749;1118;114901;-69
2021/04/08 08:42:01;;;;;;;11.55;7.55;;;;;;;3.99;63.09;99101.23;257615;1117;114827;-70
2021/04/08 08:47:29;;;;;;;11.75;5.13;;;;;;;4.16;63.06;99125.20;257827;1118;114656;-69
2021/04/08 08:52:35;;;;;;;7.70;4.38;;;;;;;4.22;62.46;99109.19;257635;1118;114742;-70
2021/04/08 08:57:40;;;;;;;9.25;5.60;;;;;;;4.20;62.80;99125.95;257943;1117;114425;-70
2021/04/08 09:02:44;;;;;;;13.08;7.20;;;;;;;4.32;63.00;99127.31;257702;1118;114388;-70
2021/04/08 09:07:49;;;;;;;11.33;7.08;;;;;;;4.38;62.91;99133.23;257817;1118;114535;-70
2021/04/08 09:13:12;;;;;;;12.83;6.90;;;;;;;4.35;62.74;99120.16;257643;1118;115067;-68
2021/04/08 09:18:20;;;;;;;9.93;6.53;;;;;;;4.34;62.35;99134.23;257578;1118;115577;-77
2021/04/08 09:23:23;;;;;;;16.93;8.85;;;;;;;4.41;62.48;99135.73;257706;1118;114222;-69
2021/04/08 09:28:37;;;;;;;15.05;7.60;;;;;;;4.51;62.05;99131.84;257897;1118;115199;-68
2021/04/08 09:33:42;;;;;;;14.28;7.43;;;;;;;4.66;61.42;99133.09;257629;1117;115176;-77
2021/04/08 09:38:45;;;;;;;13.90;5.50;;;;;;;4.83;61.35;99127.20;257337;1117;114505;-76
2021/04/08 09:43:49;;;;;;;8.58;3.75;;;;;;;5.02;60.83;99139.68;257557;1111;114647;-75
2021/04/08 09:48:54;;;;;;;10.95;4.25;;;;;;;5.14;60.01;99128.67;257788;1117;114569;-78
2021/04/08 09:54:04;;;;;;;6.57;3.70;;;;;;;5.31;59.82;99133.30;256707;1118;114825;-77
2021/04/08 09:59:10;;;;;;;9.10;4.30;;;;;;;5.46;59.13;99136.17;256610;1118;114783;-76
2021/04/08 10:04:16;;;;;;;10.80;4.43;;;;;;;5.51;58.60;99143.08;257743;1117;114497;-76
2021/04/08 10:09:19;;;;;;;7.63;3.28;;;;;;;5.65;58.15;99149.51;257562;1118;114591;-76
2021/04/08 10:14:28;;;;;;;9.40;3.53;;;;;;;5.81;57.83;99154.15;257732;1118;114624;-75
2021/04/08 10:19:35;;;;;;;5.93;2.67;;;;;;;5.87;57.12;99157.41;255383;1117;114494;-76
2021/04/08 10:24:43;;;;;;;10.18;2.83;;;;;;;5.75;55.86;99178.19;257509;1119;114598;-76
2021/04/08 10:29:48;;;;;;;6.33;3.08;;;;;;;5.57;55.86;99180.64;256311;1118;114744;-77
2021/04/08 10:34:50;;;;;;;7.20;3.65;;;;;;;5.53;55.88;99181.66;257331;1118;114355;-77
2021/04/08 10:39:53;;;;;;;10.35;4.40;;;;;;;5.52;56.39;99176.45;257818;1118;114385;-69
2021/04/08 10:44:58;;;;;;;6.88;3.08;;;;;;;5.55;55.83;99192.17;257933;1118;114887;-77
2021/04/08 10:50:03;;;;;;;6.23;3.38;;;;;;;5.66;56.13;99188.18;257526;1118;114504;-74
2021/04/08 10:55:12;;;;;;;7.43;3.33;;;;;;;5.79;56.29;99198.27;256954;1118;114352;-77
2021/04/08 11:00:17;;;;;;;8.88;4.50;;;;;;;6.06;56.10;99201.61;257424;1119;114628;-77
2021/04/08 11:05:22;;;;;;;8.10;3.57;;;;;;;6.42;55.84;99187.76;258198;1118;114364;-75
2021/04/08 11:10:27;;;;;;;7.90;3.58;;;;;;;6.78;55.72;99194.10;257717;1118;114366;-75
2021/04/08 11:15:31;;;;;;;;;;;;;;;7.16;55.13;99180.08;253470;1117;114375;-78
2021/04/08 11:20:40;;;;;;;11.35;4.00;;;;;;;7.48;54.92;99183.89;257447;1118;102913;-69
2021/04/08 11:25:43;;;;;;;10.20;4.68;;;;;;;7.45;54.63;99181.39;257464;1112;114715;-70
2021/04/08 11:30:46;;;;;;;9.25;3.50;;;;;;;7.32;53.28;99184.59;255696;1118;114900;-77
2021/04/08 11:35:49;;;;;;;8.00;4.00;;;;;;;7.18;53.46;99244.40;257858;1118;114816;-69
2021/04/08 11:41:02;;;;;;;6.25;3.48;;;;;;;6.64;54.17;99241.45;257748;1118;114802;-76
2021/04/08 11:46:05;;;;;;;5.60;2.88;;;;;;;6.09;54.05;99252.53;257728;1118;114342;-74
2021/04/08 11:51:09;;;;;;;4.15;2.30;;;;;;;5.78;55.15;99246.73;257767;1118;114607;-75
2021/04/08 11:56:35;;;;;;;4.23;2.00;;;;;;;5.59;55.40;99259.77;257020;1118;114513;-75
2021/04/08 12:01:53;;;;;;;5.10;2.70;;;;;;;5.96;56.82;99253.09;257669;1118;114441;-69
2021/04/08 12:06:57;;;;;;;6.98;3.20;;;;;;;6.57;56.61;99245.28;257483;1118;114586;-76
2021/04/08 12:12:01;;;;;;;9.30;4.68;;;;;;;7.20;57.50;99238.12;257335;1118;114628;-69
2021/04/08 12:17:08;;;;;;;8.83;4.63;;;;;;;7.78;56.31;99238.06;257912;1118;114652;-69
2021/04/08 12:22:13;;;;;;;12.63;5.20;;;;;;;7.94;55.42;99247.91;256578;1118;114298;-76
2021/04/08 12:27:19;;;;;;;8.67;4.87;;;;;;;7.67;54.63;99280.07;256890;1118;114779;-80
2021/04/08 12:32:29;;;;;;;6.68;3.23;;;;;;;7.23;53.94;99282.95;257891;1118;114666;-75
2021/04/08 12:37:32;;;;;;;6.03;3.05;;;;;;;6.78;54.12;99297.25;253847;1117;114285;-70
2021/04/08 12:42:38;;;;;;;4.55;2.60;;;;;;;6.72;55.08;99284.28;257841;1117;114481;-68
2021/04/08 12:47:45;;;;;;;5.38;3.43;;;;;;;6.77;54.26;99284.11;257955;1117;114150;-68
2021/04/08 12:52:48;;;;;;;7.05;3.78;;;;;;;6.52;55.15;99305.41;257871;1118;114306;-68
2021/04/08 12:57:53;;;;;;;3.63;1.65;;;;;;;6.16;55.21;99313.92;257423;1119;115141;-69
2021/04/08 13:02:56;;;;;;;4.40;1.90;;;;;;;6.16;55.73;99308.64;257767;1118;114737;-69
2021/04/08 13:07:59;;;;;;;2.70;1.70;;;;;;;6.53;55.87;99296.58;257942;1118;114419;-68
2021/04/08 13:13:02;;;;;;;3.18;1.73;;;;;;;6.87;56.62;99286.30;257266;1118;114717;-76
2021/04/08 13:18:06;;;;;;;2.83;1.50;;;;;;;7.24;55.53;99287.34;257246;1117;114584;-68
2021/04/08 13:23:09;;;;;;;2.13;1.50;;;;;;;7.61;54.94;99276.84;257683;1117;114470;-68
2021/04/08 13:28:12;;;;;;;4.65;1.20;;;;;;;8.00;54.12;99277.64;257585;1118;114332;-68
2021/04/08 13:33:16;;;;;;;4.38;1.30;;;;;;;8.33;53.75;99294.66;257538;1117;114933;-68
2021/04/08 13:38:18;;;;;;;3.40;1.58;;;;;;;8.79;53.90;99303.86;257679;1118;114617;-75
2021/04/08 13:43:21;;;;;;;6.00;1.70;;;;;;;9.16;51.75;99302.83;257797;1118;114271;-76
2021/04/08 13:48:24;;;;;;;5.13;1.80;;;;;;;8.74;50.80;99312.06;257249;1118;114565;-76
2021/04/08 13:53:30;;;;;;;4.23;1.75;;;;;;;8.47;50.96;99313.44;257107;1119;114931;-70
2021/04/08 13:58:33;;;;;;;4.43;2.20;;;;;;;8.23;50.54;99336.66;257709;1118;114455;-78
2021/04/08 14:03:37;;;;;;;4.88;2.20;;;;;;;7.71;50.84;99345.25;257654;1118;114367;-70
2021/04/08 14:08:39;;;;;;;4.33;1.48;;;;;;;7.28;51.39;99370.97;257815;1118;114603;-69
2021/04/08 14:13:42;;;;;;;3.00;1.40;;;;;;;6.78;52.59;99379.25;257664;1118;114294;-69
2021/04/08 14:18:45;;;;;;;4.65;1.78;;;;;;;6.29;53.18;99385.66;257767;1117;114380;-76
2021/04/08 14:23:50;;;;;;;2.98;1.58;;;;;;;5.91;53.58;99401.16;256932;1117;114209;-75
2021/04/08 14:28:53;;;;;;;3.05;1.50;;;;;;;5.69;54.50;99408.99;257749;1118;114335;-75
2021/04/08 14:33:56;;;;;;;3.20;2.00;;;;;;;5.59;55.09;99415.52;254991;1117;114297;-75
2021/04/08 14:38:59;;;;;;;4.18;2.30;;;;;;;5.45;55.85;99413.38;257694;1118;114751;-68
2021/04/08 14:44:01;;;;;;;3.18;1.95;;;;;;;5.30;56.61;99414.78;256235;1118;114316;-76
2021/04/08 14:49:04;;;;;;;4.50;2.93;;;;;;;5.27;56.83;99414.02;257540;1118;114706;-77
2021/04/08 14:54:07;;;;;;;6.15;3.68;;;;;;;5.30;56.78;99421.80;257608;1118;114105;-75
2021/04/08 14:59:11;;;;;;;6.88;3.70;;;;;;;5.29;56.79;99434.14;256848;1118;114412;-70
2021/04/08 15:04:14;;;;;;;8.35;4.60;;;;;;;5.31;56.82;99424.41;255767;1117;114281;-77
2021/04/08 15:09:16;;;;;;;6.08;4.18;;;;;;;5.40;57.27;99418.82;257764;1118;114272;-77
2021/04/08 15:14:19;;;;;;;10.23;4.28;;;;;;;5.47;56.98;99427.39;257507;1117;114618;-70
2021/04/08 15:19:22;;;;;;;9.45;4.98;;;;;;;5.48;57.47;99430.88;257661;1117;114622;-70
2021/04/08 15:24:25;;;;;;;11.55;4.75;;;;;;;5.50;57.00;99429.03;257803;1118;114425;-77
2021/04/08 15:29:28;;;;;;;7.88;4.38;;;;;;;5.53;56.85;99448.27;256782;1118;115057;-76
2021/04/08 15:34:31;;;;;;;4.98;2.88;;;;;;;5.56;56.91;99461.36;254642;1118;114404;-70
2021/04/08 15:39:37;;;;;;;4.80;2.57;;;;;;;5.55;56.97;99467.56;257617;1117;114806;-70
2021/04/08 15:44:40;;;;;;;6.03;3.70;;;;;;;5.57;56.89;99459.58;257653;1118;114400;-70
2021/04/08 15:49:43;;;;;;;5.80;3.18;;;;;;;5.69;57.71;99464.44;257787;1117;114315;-70
2021/04/08 15:54:46;;;;;;;5.60;4.43;;;;;;;5.79;57.67;99457.91;257840;1117;114383;-70
2021/04/08 15:59:49;;;;;;;9.93;5.05;;;;;;;5.82;57.09;99472.80;257670;1118;115040;-71
2021/04/08 16:04:52;;;;;;;9.00;4.33;;;;;;;5.84;56.83;99485.04;257713;1118;114641;-72
2021/04/08 16:09:55;;;;;;;9.60;5.55;;;;;;;5.83;57.02;99499.14;257896;1117;114352;-78
2021/04/08 16:14:58;;;;;;;10.37;5.50;;;;;;;5.78;57.04;99503.73;257613;1118;116066;-73
2021/04/08 16:20:00;;;;;;;11.30;6.05;;;;;;;5.70;57.59;99511.91;257767;1118;114795;-80
2021/04/08 16:25:05;;;;;;;14.23;6.55;;;;;;;5.70;57.24;99517.19;257743;1118;115316;-79
2021/04/08 16:30:10;;;;;;;12.10;6.60;;;;;;;5.70;58.13;99511.91;257759;1119;115415;-78
2021/04/08 16:35:14;;;;;;;13.78;6.48;;;;;;;5.69;57.71;99522.53;257904;1118;114843;-72
2021/04/08 16:40:17;;;;;;;14.35;8.95;;;;;;;5.65;57.51;99520.92;257715;1118;115460;-73
2021/04/08 16:45:20;;;;;;;13.83;8.67;;;;;;;5.68;58.17;99528.73;257759;1118;115695;-79
2021/04/08 16:50:23;;;;;;;19.98;8.43;;;;;;;5.69;57.99;99535.73;257766;1118;114753;-79
2021/04/08 16:55:26;;;;;;;19.30;8.53;;;;;;;5.71;57.83;99531.28;257649;1118;115095;-79
2021/04/08 17:00:31;;;;;;;15.70;7.73;;;;;;;5.69;58.57;99541.02;257870;1117;114479;-72
2021/04/08 17:05:34;;;;;;;15.68;7.80;;;;;;;5.70;58.30;99548.87;257662;1117;115073;-79
2021/04/08 17:10:38;;;;;;;17.65;7.23;;;;;;;5.68;57.94;99560.42;257872;1117;114786;-70
2021/04/08 17:15:40;;;;;;;10.40;6.55;;;;;;;5.57;57.66;99552.87;257584;1118;115180;-80
2021/04/08 17:20:43;;;;;;;12.07;7.17;;;;;;;5.45;58.37;99572.59;257605;1118;115644;-79
2021/04/08 17:25:46;;;;;;;16.63;8.00;;;;;;;5.33;58.12;99566.84;257633;1118;114795;-79
2021/04/08 17:30:49;;;;;;;12.63;8.45;;;;;;;5.25;58.84;99574.16;257219;1118;114276;-79
2021/04/08 17:35:52;;;;;;;13.55;8.60;;;;;;;5.15;59.39;99592.05;255345;1117;115108;-78
2021/04/08 17:40:55;;;;;;;18.83;8.85;;;;;;;5.11;58.87;99595.70;257820;1118;115317;-78
2021/04/08 17:45:58;;;;;;;16.77;8.40;;;;;;;5.07;58.96;99604.62;257388;1118;114430;-78
2021/04/08 17:51:01;;;;;;;17.55;9.50;;;;;;;5.08;59.03;99630.08;255408;1118;115773;-75
2021/04/08 17:56:04;;;;;;;15.90;8.57;;;;;;;5.09;59.84;99623.88;256732;1118;114735;-78
2021/04/08 18:01:06;;;;;;;17.98;9.88;;;;;;;5.04;59.21;99637.22;254205;1118;115023;-76
2021/04/08 18:06:09;;;;;;;17.35;9.20;;;;;;;4.98;59.55;99640.89;256751;1117;116634;-77
2021/04/08 18:11:12;;;;;;;15.77;9.07;;;;;;;4.96;59.47;99645.37;255083;1118;114964;-75
2021/04/08 18:16:15;;;;;;;16.50;9.10;;;;;;;4.87;59.61;99652.68;256225;1118;115280;-77
2021/04/08 18:27:57;;;;;;;19.60;9.73;;;;;;;4.68;59.64;99676.91;257308;1117;114680;-78
2021/04/08 18:32:59;;;;;;;19.60;10.60;;;;;;;4.64;60.41;99687.59;257214;1119;115775;-78
2021/04/08 18:38:02;;;;;;;21.60;11.30;;;;;;;4.65;60.15;99689.31;256125;1117;114920;-76
2021/04/08 18:43:05;;;;;;;20.38;13.10;;;;;;;4.68;60.62;99702.41;257476;1118;115583;-79
2021/04/08 18:48:09;;;;;;;24.45;12.68;;;;;;;4.73;60.54;99700.53;257693;1117;116028;-80
2021/04/08 18:53:14;;;;;;;22.30;13.50;;;;;;;4.81;60.63;99703.81;257765;1117;115640;-73
2021/04/08 18:58:17;;;;;;;29.45;13.68;;;;;;;4.79;60.87;99700.38;257472;1119;114840;-81
2021/04/08 19:03:20;;;;;;;31.78;15.55;;;;;;;4.86;60.59;99701.92;257525;1118;115736;-80
2021/04/08 19:08:23;;;;;;;23.73;14.63;;;;;;;4.92;60.54;99711.41;257656;1118;114908;-73
2021/04/08 19:13:26;;;;;;;28.53;15.28;;;;;;;4.92;60.78;99711.41;257596;1117;114937;-80
2021/04/08 19:18:31;;;;;;;27.85;15.30;;;;;;;4.90;60.79;99718.52;257647;1118;114902;-75
2021/04/08 19:23:33;;;;;;;30.93;15.05;;;;;;;4.87;60.70;99718.61;257342;1118;116090;-74
2021/04/08 19:28:36;;;;;;;32.85;17.53;;;;;;;4.86;60.46;99725.66;257535;1117;114625;-74
2021/04/08 19:33:39;;;;;;;30.13;16.60;;;;;;;4.88;60.94;99731.73;257689;1118;114704;-73
2021/04/08 19:38:44;;;;;;;32.25;17.08;;;;;;;4.86;60.66;99732.70;257806;1118;115673;-80
2021/04/08 19:43:47;;;;;;;28.98;16.40;;;;;;;4.83;61.07;99743.34;257709;1118;115141;-81
2021/04/08 19:48:51;;;;;;;35.08;19.03;;;;;;;4.79;60.91;99747.83;257556;1118;114669;-81
2021/04/08 19:53:53;;;;;;;36.10;20.83;;;;;;;4.77;60.65;99747.00;257618;1118;114834;-74
2021/04/08 19:58:56;;;;;;;37.35;20.08;;;;;;;4.77;60.83;99756.69;257751;1118;115667;-73
2021/04/08 20:03:59;;;;;;;39.33;19.08;;;;;;;4.81;60.76;99759.19;258000;1118;115082;-80
2021/04/08 20:09:04;;;;;;;37.83;19.43;;;;;;;4.90;60.93;99756.30;257811;1118;115324;-79
2021/04/08 20:14:08;;;;;;;40.48;20.58;;;;;;;4.93;60.85;99758.00;257583;1119;115627;-73
2021/04/08 20:19:12;;;;;;;41.33;22.78;;;;;;;4.96;60.75;99756.14;257607;1118;114778;-70
2021/04/08 20:24:14;;;;;;;40.88;22.65;;;;;;;4.94;61.07;99757.95;257754;1118;115179;-78
2021/04/08 20:29:17;;;;;;;45.43;24.00;;;;;;;4.91;60.36;99758.02;257884;1117;115691;-70
2021/04/08 20:34:20;;;;;;;38.08;20.20;;;;;;;4.87;60.26;99772.20;257759;1118;115024;-70
2021/04/08 20:39:23;;;;;;;40.45;21.10;;;;;;;4.80;60.54;99765.38;257899;1118;114796;-70
2021/04/08 20:44:27;;;;;;;40.93;21.28;;;;;;;4.70;60.60;99770.02;257704;1118;114652;-78
2021/04/08 20:49:29;;;;;;;47.20;23.10;;;;;;;4.64;60.74;99771.95;257724;1117;116034;-69
2021/04/08 20:54:33;;;;;;;41.93;22.83;;;;;;;4.60;60.86;99776.44;258204;1118;114764;-70
2021/04/08 20:59:36;;;;;;;42.33;22.10;;;;;;;4.61;60.58;99769.39;257852;1118;115371;-77
2021/04/08 21:04:39;;;;;;;35.68;19.55;;;;;;;4.56;61.12;99784.48;257864;1118;115788;-77
2021/04/08 21:09:42;;;;;;;45.30;22.20;;;;;;;4.51;60.56;99777.53;257682;1118;115388;-78
2021/04/08 21:14:45;;;;;;;40.88;20.43;;;;;;;4.57;60.99;99776.52;257691;1118;115149;-70
2021/04/08 21:19:48;;;;;;;40.88;19.85;;;;;;;4.58;60.81;99790.55;257813;1118;115649;-70
2021/04/08 21:24:51;;;;;;;43.58;21.35;;;;;;;4.59;60.69;99787.03;257735;1118;115509;-69
2021/04/08 21:29:55;;;;;;;43.48;20.80;;;;;;;4.63;61.11;99796.59;257669;1118;114770;-70
2021/04/08 21:34:58;;;;;;;46.30;21.27;;;;;;;4.62;60.90;99795.73;257664;1118;114788;-70
2021/04/08 21:40:01;;;;;;;40.25;21.00;;;;;;;4.58;60.63;99801.95;257915;1119;116198;-78
2021/04/08 21:45:05;;;;;;;38.78;21.33;;;;;;;4.56;61.01;99805.56;258151;1117;114823;-70
2021/04/08 21:50:08;;;;;;;44.08;21.38;;;;;;;4.54;60.90;99800.31;257963;1117;114745;-68
2021/04/08 21:55:12;;;;;;;44.03;21.10;;;;;;;4.49;61.03;99805.71;257784;1118;115884;-70
2021/04/08 22:00:22;;;;;;;35.70;18.65;;;;;;;4.44;60.91;99806.72;257508;1118;115314;-78
2021/04/08 22:05:30;;;;;;;32.75;18.38;;;;;;;4.35;60.72;99812.20;257814;1117;114517;-77
2021/04/08 22:10:34;;;;;;;34.43;18.43;;;;;;;4.27;60.72;99820.30;257950;1118;114929;-70
2021/04/08 22:15:37;;;;;;;32.73;17.70;;;;;;;4.30;61.09;99814.95;257802;1117;114717;-70
2021/04/08 22:20:40;;;;;;;33.63;17.90;;;;;;;4.31;60.74;99821.09;257861;1118;114907;-79
2021/04/08 22:25:54;;;;;;;30.90;16.98;;;;;;;4.28;60.62;99824.69;257960;1118;114681;-71
2021/04/08 22:31:00;;;;;;;35.20;17.93;;;;;;;4.23;60.78;99826.55;257617;1118;114779;-71
2021/04/08 22:36:06;;;;;;;32.63;17.73;;;;;;;4.21;60.79;99829.23;257668;1118;114712;-71
2021/04/08 22:41:09;;;;;;;33.93;17.25;;;;;;;4.20;60.71;99826.62;257603;1118;114819;-78
2021/04/08 22:46:12;;;;;;;34.40;17.00;;;;;;;4.24;60.48;99833.54;257712;1118;114917;-78
2021/04/08 22:51:15;;;;;;;30.83;16.93;;;;;;;4.27;60.77;99839.60;257848;1118;115097;-77
2021/04/08 22:56:18;;;;;;;32.28;17.65;;;;;;;4.26;60.74;99837.88;257561;1118;114738;-78
2021/04/08 23:01:22;;;;;;;28.35;15.43;;;;;;;4.26;60.74;99837.88;257911;1118;114910;-78
2021/04/08 23:06:25;;;;;;;32.65;16.33;;;;;;;4.21;60.66;99839.77;258037;1118;115175;-71
2021/04/08 23:11:28;;;;;;;33.85;17.45;;;;;;;4.20;60.48;99842.42;257848;1117;115184;-73
2021/04/08 23:16:31;;;;;;;28.85;15.93;;;;;;;4.12;60.36;99836.48;257463;1117;115318;-71
2021/04/08 23:21:34;;;;;;;27.83;16.28;;;;;;;4.09;60.40;99839.18;257747;1117;114974;-70
2021/04/08 23:26:37;;;;;;;33.43;15.70;;;;;;;4.03;60.75;99845.44;257428;1117;114780;-70